createdAt,value
2018-06-09T00:02:25.054Z,61.37
2018-06-09T00:04:53.691Z,61.61
2018-06-09T00:07:22.368Z,61.40
2018-06-09T00:09:51.114Z,61.58
2018-06-09T00:12:19.769Z,61.58
2018-06-09T00:14:48.417Z,61.18
2018-06-09T00:17:17.081Z,61.16
2018-06-09T00:19:45.715Z,61.25
2018-06-09T00:22:14.386Z,60.96
2018-06-09T00:24:43.026Z,61.17
2018-06-09T00:27:11.662Z,61.25
2018-06-09T00:29:40.318Z,60.98
2018-06-09T00:32:08.974Z,61.22
2018-06-09T00:34:37.592Z,60.86
2018-06-09T00:37:06.233Z,60.94
2018-06-09T00:39:34.910Z,60.99
2018-06-09T00:42:03.549Z,61.00
2018-06-09T00:44:32.189Z,60.72
2018-06-09T00:47:00.842Z,60.87
2018-06-09T00:49:29.517Z,61.01
2018-06-09T00:51:58.224Z,60.94
2018-06-09T00:54:26.907Z,61.60
2018-06-09T00:56:56.466Z,61.46
2018-06-09T00:59:25.141Z,61.57
2018-06-09T01:01:53.770Z,61.85
2018-06-09T01:04:22.561Z,61.94
2018-06-09T01:06:51.202Z,61.98
2018-06-09T01:09:19.852Z,62.20
2018-06-09T01:11:48.552Z,62.13
2018-06-09T01:14:17.200Z,62.62
2018-06-09T01:16:45.853Z,62.41
2018-06-09T01:19:14.510Z,62.08
2018-06-09T01:21:43.354Z,61.90
2018-06-09T01:24:12.046Z,62.03
2018-06-09T01:26:40.655Z,62.28
2018-06-09T01:29:09.341Z,62.28
2018-06-09T01:31:37.971Z,62.15
2018-06-09T01:34:06.670Z,62.18
2018-06-09T01:36:35.326Z,61.78
2018-06-09T01:39:05.414Z,62.11
2018-06-09T01:41:34.069Z,62.49
2018-06-09T01:44:02.703Z,61.77
2018-06-09T01:46:31.382Z,62.25
2018-06-09T01:49:00.020Z,62.60
2018-06-09T01:51:28.717Z,62.59
2018-06-09T01:53:57.414Z,62.69
2018-06-09T01:56:26.057Z,62.67
2018-06-09T01:58:54.692Z,63.14
2018-06-09T02:01:23.353Z,62.69
2018-06-09T02:03:51.988Z,62.76
2018-06-09T02:06:20.653Z,62.49
2018-06-09T02:08:49.299Z,62.55
2018-06-09T02:11:18.041Z,62.89
2018-06-09T02:13:46.670Z,62.49
2018-06-09T02:16:15.325Z,62.66
2018-06-09T02:18:44.019Z,62.78
2018-06-09T02:21:12.742Z,62.30
2018-06-09T02:23:41.756Z,62.49
2018-06-09T02:26:10.413Z,62.26
2018-06-09T02:28:39.169Z,62.49
2018-06-09T02:31:07.830Z,62.19
2018-06-09T02:33:36.470Z,62.75
2018-06-09T02:36:05.555Z,62.41
2018-06-09T02:38:34.199Z,62.59
2018-06-09T02:41:02.896Z,62.71
2018-06-09T02:43:31.555Z,62.71
2018-06-09T02:48:59.664Z,63.02
2018-06-09T02:51:28.361Z,62.94
2018-06-09T02:53:57.127Z,63.07
2018-06-09T02:56:25.781Z,63.17
2018-06-09T02:58:54.467Z,63.28
2018-06-09T03:01:23.104Z,63.83
2018-06-09T03:03:51.833Z,63.74
2018-06-09T03:06:20.530Z,63.72
2018-06-09T03:08:49.187Z,64.40
2018-06-09T03:11:17.799Z,64.59
2018-06-09T03:13:46.419Z,64.74
2018-06-09T03:16:15.061Z,64.77
2018-06-09T03:18:43.721Z,64.85
2018-06-09T03:21:12.348Z,64.95
2018-06-09T03:23:41.040Z,64.60
2018-06-09T03:26:09.769Z,64.88
2018-06-09T03:28:38.561Z,64.75
2018-06-09T03:31:07.261Z,65.01
2018-06-09T03:33:35.981Z,64.42
2018-06-09T03:36:04.729Z,64.55
2018-06-09T03:38:33.453Z,64.64
2018-06-09T03:41:02.160Z,64.76
2018-06-09T03:43:30.825Z,64.65
2018-06-09T03:45:59.595Z,65.09
2018-06-09T03:48:28.368Z,64.59
2018-06-09T03:50:57.107Z,65.41
2018-06-09T03:53:25.789Z,64.87
2018-06-09T03:55:54.562Z,64.64
2018-06-09T03:58:26.245Z,65.11
2018-06-09T04:00:55.483Z,64.59
2018-06-09T04:03:24.122Z,64.89
2018-06-09T04:05:52.787Z,64.55
2018-06-09T04:08:21.570Z,64.68
2018-06-09T04:10:51.148Z,64.69
2018-06-09T04:13:20.617Z,64.86
2018-06-09T04:15:49.273Z,64.93
2018-06-09T04:18:19.417Z,64.83
2018-06-09T04:20:48.182Z,64.53
2018-06-09T04:23:16.834Z,64.90
2018-06-09T04:25:45.476Z,65.03
2018-06-09T04:28:14.140Z,65.36
2018-06-09T04:30:42.850Z,65.51
2018-06-09T04:33:11.497Z,65.60
2018-06-09T04:35:40.153Z,65.55
2018-06-09T04:38:08.853Z,65.87
2018-06-09T04:40:37.572Z,65.64
2018-06-09T04:43:06.836Z,65.43
2018-06-09T04:45:35.521Z,65.70
2018-06-09T04:48:04.182Z,65.83
2018-06-09T04:50:32.874Z,65.88
2018-06-09T04:53:01.531Z,65.65
2018-06-09T04:55:30.253Z,65.95
2018-06-09T04:57:58.885Z,65.87
2018-06-09T05:00:27.641Z,65.70
2018-06-09T05:02:56.346Z,65.69
2018-06-09T05:05:25.133Z,66.31
2018-06-09T05:07:53.765Z,65.57
2018-06-09T05:10:22.486Z,66.08
2018-06-09T05:12:51.093Z,65.59
2018-06-09T05:15:19.805Z,65.50
2018-06-09T05:17:48.485Z,65.42
2018-06-09T05:20:17.285Z,65.94
2018-06-09T05:22:45.994Z,65.67
2018-06-09T05:25:14.671Z,65.20
2018-06-09T05:27:43.326Z,64.65
2018-06-09T05:30:12.029Z,64.79
2018-06-09T05:32:40.835Z,64.74
2018-06-09T05:35:09.669Z,64.54
2018-06-09T05:37:38.395Z,64.92
2018-06-09T05:40:07.365Z,64.84
2018-06-09T05:42:36.013Z,64.21
2018-06-09T05:45:04.732Z,64.16
2018-06-09T05:47:33.990Z,63.74
2018-06-09T05:50:02.708Z,64.20
2018-06-09T05:52:31.430Z,64.19
2018-06-09T05:55:00.187Z,63.90
2018-06-09T05:57:28.868Z,63.44
2018-06-09T05:59:58.466Z,63.24
2018-06-09T06:02:27.426Z,63.28
2018-06-09T06:04:56.214Z,63.43
2018-06-09T06:07:24.901Z,63.20
2018-06-09T06:09:53.578Z,63.49
2018-06-09T06:12:22.259Z,62.82
2018-06-09T06:14:50.938Z,62.74
2018-06-09T06:17:19.693Z,62.12
2018-06-09T06:19:48.358Z,62.04
2018-06-09T06:22:17.033Z,61.87
2018-06-09T06:24:45.675Z,62.75
2018-06-09T06:27:15.409Z,61.86
2018-06-09T06:31:13.556Z,62.25
2018-06-09T06:33:42.212Z,61.07
2018-06-09T06:36:10.940Z,61.56
2018-06-09T06:38:39.590Z,61.36
2018-06-09T06:41:08.263Z,60.60
2018-06-09T06:43:36.989Z,60.87
2018-06-09T06:46:05.669Z,61.09
2018-06-09T06:48:34.320Z,59.97
2018-06-09T06:51:03.064Z,60.01
2018-06-09T06:53:31.773Z,60.14
2018-06-09T06:56:00.851Z,59.67
2018-06-09T06:58:29.857Z,59.76
2018-06-09T07:00:58.516Z,58.42
2018-06-09T07:03:27.492Z,58.29
2018-06-09T07:05:56.216Z,58.62
2018-06-09T07:08:24.924Z,57.71
2018-06-09T07:10:53.585Z,57.91
2018-06-09T07:13:22.306Z,57.81
2018-06-09T07:15:50.946Z,56.78
2018-06-09T07:18:19.592Z,56.57
2018-06-09T07:20:48.233Z,57.03
2018-06-09T07:23:17.222Z,57.30
2018-06-09T07:25:45.883Z,57.36
2018-06-09T07:28:14.554Z,57.04
2018-06-09T07:30:43.262Z,57.19
2018-06-09T07:33:12.076Z,57.20
2018-06-09T07:35:40.864Z,56.67
2018-06-09T07:38:09.483Z,56.55
2018-06-09T07:40:38.114Z,55.86
2018-06-09T07:43:06.797Z,56.05
2018-06-09T07:45:35.496Z,54.95
2018-06-09T07:48:04.226Z,55.15
2018-06-09T07:50:32.864Z,55.49
2018-06-09T07:53:01.490Z,54.26
2018-06-09T07:55:30.186Z,55.15
2018-06-09T07:57:58.831Z,54.49
2018-06-09T08:00:27.656Z,54.55
2018-06-09T08:02:56.314Z,54.13
2018-06-09T08:05:24.959Z,53.41
2018-06-09T08:22:50.618Z,51.44
2018-06-09T08:25:19.282Z,51.68
2018-06-09T08:27:47.939Z,52.10
2018-06-09T08:30:16.626Z,53.11
2018-06-09T08:32:45.219Z,53.25
2018-06-09T08:35:14.087Z,52.33
2018-06-09T08:37:42.818Z,51.82
2018-06-09T08:40:11.499Z,51.11
2018-06-09T08:42:40.092Z,51.02
2018-06-09T08:45:08.778Z,51.06
2018-06-09T08:47:37.384Z,51.61
2018-06-09T08:50:06.274Z,50.59
2018-06-09T08:52:34.965Z,50.57
2018-06-09T08:55:03.701Z,49.44
2018-06-09T08:57:32.343Z,49.36
2018-06-09T09:00:01.023Z,49.12
2018-06-09T09:02:29.610Z,49.61
2018-06-09T09:04:58.222Z,49.87
2018-06-09T09:07:26.874Z,49.20
2018-06-09T09:09:55.556Z,50.45
2018-06-09T09:12:24.192Z,48.92
2018-06-09T09:14:52.920Z,48.89
2018-06-09T09:17:22.055Z,49.90
2018-06-09T09:19:50.670Z,48.79
2018-06-09T09:22:19.301Z,48.75
2018-06-09T09:24:47.931Z,48.49
2018-06-09T09:27:16.567Z,48.97
2018-06-09T09:29:45.226Z,49.84
2018-06-09T09:32:14.008Z,48.95
2018-06-09T09:34:42.631Z,47.71
2018-06-09T09:37:11.242Z,48.11
2018-06-09T09:39:39.890Z,48.34
2018-06-09T09:42:08.592Z,46.19
2018-06-09T09:44:37.252Z,45.30
2018-06-09T09:47:05.961Z,45.61
2018-06-09T09:49:34.627Z,45.42
2018-06-09T09:52:03.386Z,44.95
2018-06-09T09:54:32.289Z,46.03
2018-06-09T09:57:01.012Z,45.94
2018-06-09T09:59:29.708Z,45.76
2018-06-09T10:01:58.324Z,45.54
2018-06-09T10:04:27.001Z,45.21
2018-06-09T10:06:55.713Z,45.31
2018-06-09T10:09:24.388Z,45.44
2018-06-09T10:11:53.083Z,45.32
2018-06-09T10:14:21.692Z,45.00
2018-06-09T10:16:50.331Z,44.75
2018-06-09T10:19:18.964Z,45.25
2018-06-09T10:21:47.805Z,43.55
2018-06-09T10:24:16.473Z,44.44
2018-06-09T10:26:45.134Z,44.13
2018-06-09T10:29:13.809Z,43.10
2018-06-09T10:31:42.555Z,43.95
2018-06-09T10:34:11.243Z,44.24
2018-06-09T10:36:39.896Z,44.33
2018-06-09T10:39:08.979Z,43.11
2018-06-09T10:41:37.656Z,44.29
2018-06-09T10:44:06.334Z,43.48
2018-06-09T10:46:34.965Z,43.32
2018-06-09T10:49:03.624Z,43.33
2018-06-09T10:51:32.254Z,42.46
2018-06-09T10:54:00.922Z,42.43
2018-06-09T10:56:29.563Z,42.70
2018-06-09T10:58:58.209Z,42.02
2018-06-09T11:01:26.838Z,41.58
2018-06-09T11:03:55.446Z,41.11
2018-06-09T11:06:24.038Z,41.76
2018-06-09T11:08:52.726Z,41.30
2018-06-09T11:11:21.396Z,40.42
2018-06-09T11:13:50.056Z,39.54
2018-06-09T11:16:18.673Z,41.11
2018-06-09T11:18:47.438Z,41.06
2018-06-09T11:21:16.099Z,41.58
2018-06-09T11:23:44.796Z,42.30
2018-06-09T11:26:13.408Z,43.86
2018-06-09T11:28:42.011Z,44.89
2018-06-09T11:31:10.681Z,44.98
2018-06-09T11:33:39.331Z,46.23
2018-06-09T11:36:07.985Z,49.03
2018-06-09T11:38:36.764Z,48.10
2018-06-09T11:41:06.075Z,49.41
2018-06-09T11:43:34.681Z,52.91
2018-06-09T11:46:03.345Z,53.15
2018-06-09T11:48:32.139Z,53.24
2018-06-09T11:51:00.743Z,52.63
2018-06-09T11:53:29.359Z,57.95
2018-06-09T11:55:58.028Z,58.98
2018-06-09T11:58:26.645Z,57.96
2018-06-09T12:00:55.270Z,60.69
2018-06-09T12:03:23.956Z,60.51
2018-06-09T12:05:52.561Z,61.17
2018-06-09T12:08:21.238Z,63.44
2018-06-09T12:10:50.731Z,64.31
2018-06-09T12:13:19.395Z,64.47
2018-06-09T12:15:48.179Z,65.04
2018-06-09T12:18:16.846Z,66.03
2018-06-09T12:20:45.531Z,66.80
2018-06-09T12:23:14.301Z,63.46
2018-06-09T12:25:42.960Z,62.17
2018-06-09T12:28:11.610Z,61.07
2018-06-09T12:30:40.384Z,61.17
2018-06-09T12:33:09.082Z,61.99
2018-06-09T12:35:37.686Z,63.45
2018-06-09T12:38:06.347Z,64.23
2018-06-09T12:40:34.997Z,64.68
2018-06-09T12:43:03.706Z,66.83
2018-06-09T12:45:32.343Z,68.00
2018-06-09T12:48:00.931Z,70.04
2018-06-09T12:50:29.616Z,71.31
2018-06-09T12:52:58.242Z,71.79
2018-06-09T12:55:26.890Z,72.02
2018-06-09T12:57:55.480Z,70.75
2018-06-09T13:00:24.151Z,72.97
2018-06-09T13:02:52.794Z,72.90
2018-06-09T13:05:21.526Z,71.39
2018-06-09T13:07:50.186Z,70.84
2018-06-09T13:10:18.840Z,69.46
2018-06-09T13:12:47.494Z,68.48
2018-06-09T13:15:16.138Z,67.74
2018-06-09T13:17:44.745Z,66.20
2018-06-09T13:20:13.817Z,65.26
2018-06-09T13:22:42.459Z,67.67
2018-06-09T13:25:11.122Z,63.04
2018-06-09T13:27:39.743Z,62.66
2018-06-09T13:30:08.530Z,60.74
2018-06-09T13:32:37.979Z,61.29
2018-06-09T13:35:06.796Z,60.21
2018-06-09T13:37:35.472Z,60.49
2018-06-09T13:40:04.153Z,60.52
2018-06-09T13:42:32.793Z,62.07
2018-06-09T13:45:01.427Z,59.95
2018-06-09T13:47:30.108Z,60.71
2018-06-09T13:49:58.766Z,61.55
2018-06-09T13:52:27.422Z,59.22
2018-06-09T13:54:56.068Z,57.53
2018-06-09T13:57:24.671Z,55.85
2018-06-09T13:59:53.313Z,56.56
2018-06-09T14:02:21.899Z,57.29
2018-06-09T14:04:50.536Z,56.94
2018-06-09T14:07:19.174Z,58.09
2018-06-09T14:09:47.818Z,58.25
2018-06-09T14:12:16.468Z,56.22
2018-06-09T14:14:45.114Z,56.29
2018-06-09T14:17:13.742Z,56.78
2018-06-09T14:19:42.389Z,57.60
2018-06-09T14:22:11.031Z,56.39
2018-06-09T14:24:39.672Z,56.86
2018-06-09T14:27:08.310Z,56.98
2018-06-09T14:29:36.950Z,57.25
2018-06-09T14:32:05.633Z,56.14
2018-06-09T14:34:34.245Z,57.85
2018-06-09T14:37:02.913Z,57.02
2018-06-09T14:39:31.531Z,56.92
2018-06-09T14:42:00.291Z,56.98
2018-06-09T14:44:29.082Z,56.22
2018-06-09T14:46:57.800Z,55.78
2018-06-09T14:49:26.467Z,56.95
2018-06-09T14:51:55.078Z,56.48
2018-06-09T14:54:23.779Z,55.25
2018-06-09T14:56:52.407Z,56.52
2018-06-09T14:59:21.021Z,57.79
2018-06-09T15:01:49.649Z,57.51
2018-06-09T15:04:18.329Z,56.77
2018-06-09T15:06:47.018Z,57.81
2018-06-09T15:09:15.771Z,58.39
2018-06-09T15:11:44.391Z,59.39
2018-06-09T15:14:13.044Z,58.27
2018-06-09T15:16:41.669Z,49.74
2018-06-09T15:19:10.397Z,52.14
2018-06-09T15:21:39.137Z,53.47
2018-06-09T15:24:07.870Z,56.10
2018-06-09T15:26:36.740Z,58.04
2018-06-09T15:29:05.437Z,58.40
2018-06-09T15:31:34.047Z,58.75
2018-06-09T15:34:02.782Z,59.92
2018-06-09T15:36:32.111Z,60.43
2018-06-09T15:39:00.846Z,63.27
2018-06-09T15:41:29.625Z,67.17
2018-06-09T15:43:58.339Z,68.40
2018-06-09T15:46:26.984Z,71.72
2018-06-09T15:48:55.605Z,72.30
2018-06-09T15:51:24.237Z,73.43
2018-06-09T15:53:52.953Z,74.52
2018-06-09T15:56:21.569Z,74.22
2018-06-09T15:58:50.186Z,74.23
2018-06-09T16:01:18.860Z,73.18
2018-06-09T16:03:47.514Z,74.13
2018-06-09T16:06:16.123Z,74.50
2018-06-09T16:08:44.792Z,74.70
2018-06-09T16:11:13.880Z,74.63
2018-06-09T16:13:42.566Z,74.62
2018-06-09T16:16:11.206Z,74.32
2018-06-09T16:18:40.010Z,74.94
2018-06-09T16:21:08.717Z,74.72
2018-06-09T16:23:37.358Z,73.20
2018-06-09T16:26:06.059Z,74.20
2018-06-09T16:28:34.803Z,73.42
2018-06-09T16:31:04.343Z,73.87
2018-06-09T16:33:32.996Z,72.98
2018-06-09T16:36:01.619Z,72.24
2018-06-09T16:38:30.300Z,72.68
2018-06-09T16:40:58.975Z,73.16
2018-06-09T16:44:56.996Z,72.67
2018-06-09T16:47:25.638Z,73.55
2018-06-09T16:49:54.321Z,74.17
2018-06-09T16:52:23.067Z,74.07
2018-06-09T16:54:51.742Z,74.25
2018-06-09T16:57:20.633Z,73.97
2018-06-09T16:59:49.304Z,74.30
2018-06-09T17:02:17.932Z,74.50
2018-06-09T17:04:46.705Z,74.41
2018-06-09T17:07:15.324Z,73.82
2018-06-09T17:09:44.013Z,73.28
2018-06-09T17:12:12.706Z,73.62
2018-06-09T17:14:41.459Z,72.59
2018-06-09T17:17:10.149Z,71.97
2018-06-09T17:19:39.106Z,70.04
2018-06-09T17:22:07.715Z,70.50
2018-06-09T17:24:36.410Z,70.00
2018-06-09T17:27:05.052Z,68.98
2018-06-09T17:29:33.721Z,68.90
2018-06-09T17:32:02.386Z,68.43
2018-06-09T17:34:31.164Z,67.75
2018-06-09T17:36:59.891Z,67.58
2018-06-09T17:39:28.534Z,66.97
2018-06-09T17:41:57.212Z,66.37
2018-06-09T17:44:25.923Z,66.56
2018-06-09T17:46:54.684Z,66.12
2018-06-09T17:49:23.474Z,65.99
2018-06-09T17:51:52.131Z,65.85
2018-06-09T17:54:20.762Z,65.54
2018-06-09T17:56:49.502Z,66.29
2018-06-09T17:59:18.190Z,66.16
2018-06-09T18:01:47.010Z,66.66
2018-06-09T18:04:15.706Z,66.98
2018-06-09T18:06:44.387Z,66.59
2018-06-09T18:09:13.043Z,66.62
2018-06-09T18:11:41.728Z,66.59
2018-06-09T18:14:10.403Z,67.15
2018-06-09T18:16:39.055Z,66.93
2018-06-09T18:19:07.792Z,67.55
2018-06-09T18:21:36.532Z,67.66
2018-06-09T18:24:05.261Z,66.96
2018-06-09T18:26:33.934Z,68.05
2018-06-09T18:29:02.568Z,68.69
2018-06-09T18:31:31.219Z,68.99
2018-06-09T18:33:59.822Z,67.87
2018-06-09T18:36:28.442Z,68.81
2018-06-09T18:38:57.214Z,68.23
2018-06-09T18:41:25.865Z,69.19
2018-06-09T18:43:54.513Z,71.15
2018-06-09T18:46:23.274Z,71.68
2018-06-09T18:48:52.011Z,70.91
2018-06-09T18:51:20.595Z,68.92
2018-06-09T18:53:49.210Z,68.91
2018-06-09T18:56:17.831Z,69.49
2018-06-09T18:58:46.560Z,69.81
2018-06-09T19:01:15.210Z,69.42
2018-06-09T19:03:43.832Z,69.42
2018-06-09T19:06:12.557Z,68.66
2018-06-09T19:08:41.199Z,68.55
2018-06-09T19:11:09.899Z,69.19
2018-06-09T19:13:38.530Z,69.59
2018-06-09T19:16:07.187Z,69.45
2018-06-09T19:18:35.807Z,68.65
2018-06-09T19:21:04.451Z,69.65
2018-06-09T19:23:33.101Z,70.04
2018-06-09T19:26:01.906Z,72.05
2018-06-09T19:28:30.555Z,72.72
2018-06-09T19:30:59.937Z,73.27
2018-06-09T19:33:28.714Z,75.05
2018-06-09T19:35:57.476Z,75.34
2018-06-09T19:38:26.195Z,75.55
2018-06-09T19:40:54.800Z,76.20
2018-06-09T19:43:46.284Z,75.77
2018-06-09T19:46:14.942Z,75.75
2018-06-09T19:48:43.544Z,78.04
2018-06-09T19:51:12.244Z,78.59
2018-06-09T19:53:40.907Z,78.29
2018-06-09T19:56:09.706Z,79.23
2018-06-09T19:58:38.401Z,79.07
2018-06-09T20:01:07.265Z,77.90
2018-06-09T20:03:35.964Z,77.71
2018-06-09T20:06:04.686Z,77.48
2018-06-09T20:08:33.438Z,78.03
2018-06-09T20:11:03.172Z,78.71
2018-06-09T20:13:31.861Z,78.49
2018-06-09T20:16:01.148Z,78.26
2018-06-09T20:18:29.901Z,77.92
2018-06-09T20:20:58.543Z,77.68
2018-06-09T20:23:27.212Z,78.52
2018-06-09T20:25:55.863Z,78.58
2018-06-09T20:28:24.588Z,78.83
2018-06-09T20:30:53.270Z,79.48
2018-06-09T20:33:22.006Z,78.62
2018-06-09T20:35:50.607Z,77.70
2018-06-09T20:38:19.364Z,77.51
2018-06-09T20:40:48.061Z,76.93
2018-06-09T20:43:16.806Z,76.37
2018-06-09T20:45:45.437Z,76.77
2018-06-09T20:48:14.189Z,77.40
2018-06-09T20:50:42.875Z,77.97
2018-06-09T20:53:11.539Z,77.72
2018-06-09T20:55:40.315Z,77.23
2018-06-09T20:58:09.034Z,77.92
2018-06-09T21:00:37.704Z,78.33
2018-06-09T21:03:06.425Z,78.59
2018-06-09T21:05:35.059Z,79.70
2018-06-09T21:08:03.737Z,81.01
2018-06-09T21:10:32.505Z,80.69
2018-06-09T21:13:01.224Z,81.75
2018-06-09T21:15:29.900Z,81.39
2018-06-09T21:17:58.553Z,80.67
2018-06-09T21:20:27.303Z,80.72
2018-06-09T21:22:55.960Z,80.55
2018-06-09T21:25:24.681Z,80.36
2018-06-09T21:27:58.543Z,80.64
2018-06-09T21:31:35.007Z,80.61
2018-06-09T21:34:14.955Z,82.17
2018-06-09T21:36:48.865Z,81.98
2018-06-09T21:39:22.646Z,81.39
2018-06-09T21:42:56.208Z,81.93
2018-06-09T21:45:29.018Z,81.94
2018-06-09T21:47:57.817Z,81.56
2018-06-09T21:50:26.479Z,81.34
2018-06-09T21:52:55.187Z,80.93
2018-06-09T21:55:23.855Z,81.41
2018-06-09T21:57:52.482Z,79.33
2018-06-09T22:00:21.230Z,79.21
2018-06-09T22:02:50.872Z,78.58
2018-06-09T22:05:19.534Z,76.94
2018-06-09T22:07:48.216Z,78.07
2018-06-09T22:10:16.883Z,77.87
2018-06-09T22:12:45.622Z,76.90
2018-06-09T22:15:14.343Z,77.29
2018-06-09T22:17:43.046Z,77.03
2018-06-09T22:20:11.673Z,76.01
2018-06-09T22:22:41.006Z,76.37
2018-06-09T22:25:09.701Z,75.12
2018-06-09T22:27:38.481Z,74.61
2018-06-09T22:30:07.290Z,74.49
2018-06-09T22:32:35.960Z,75.88
2018-06-09T22:35:04.707Z,76.66
2018-06-09T22:37:33.350Z,76.31
2018-06-09T22:40:01.987Z,76.69
2018-06-09T22:42:30.593Z,76.79
2018-06-09T22:44:59.214Z,76.36
2018-06-09T22:47:27.910Z,76.37
2018-06-09T22:49:56.525Z,74.73
2018-06-09T22:52:25.841Z,77.65
2018-06-09T22:54:54.470Z,78.68
2018-06-09T22:57:23.046Z,78.11
2018-06-09T22:59:51.791Z,76.66
2018-06-09T23:02:20.558Z,76.14
2018-06-09T23:04:49.166Z,76.04
2018-06-09T23:07:17.851Z,75.95
2018-06-09T23:09:46.467Z,75.74
2018-06-09T23:12:15.071Z,75.94
2018-06-09T23:14:43.733Z,77.76
2018-06-09T23:17:12.975Z,78.80
2018-06-09T23:19:41.604Z,79.16
2018-06-09T23:22:10.227Z,79.29
2018-06-09T23:24:38.829Z,78.81
2018-06-09T23:27:07.450Z,78.60
2018-06-09T23:29:36.172Z,78.43
2018-06-09T23:32:04.862Z,78.49
2018-06-09T23:34:33.592Z,78.74
2018-06-09T23:37:02.257Z,78.82
2018-06-09T23:39:30.858Z,78.69
2018-06-09T23:41:59.580Z,78.78
2018-06-09T23:44:28.219Z,78.06
2018-06-09T23:46:56.831Z,78.43
2018-06-09T23:49:25.463Z,78.97
2018-06-09T23:51:54.154Z,78.81
2018-06-09T23:54:22.789Z,78.05
2018-06-09T23:56:51.396Z,77.54
2018-06-09T23:59:19.979Z,78.26
